createdAt,value
2022-10-16T00:03:13.010Z,14.78
2022-10-16T00:08:16.220Z,14.77
2022-10-16T00:13:20.898Z,14.75
2022-10-16T00:18:24.684Z,14.74
2022-10-16T00:23:27.895Z,14.72
2022-10-16T00:28:31.769Z,14.72
2022-10-16T00:33:35.231Z,14.73
2022-10-16T00:38:39.159Z,14.74
2022-10-16T00:43:57.317Z,14.73
2022-10-16T00:49:03.595Z,14.76
2022-10-16T00:54:22.984Z,14.78
2022-10-16T00:59:34.180Z,14.79
2022-10-16T01:04:51.313Z,14.79
2022-10-16T01:10:15.720Z,14.80
2022-10-16T01:15:18.728Z,14.80
2022-10-16T01:20:40.980Z,14.80
2022-10-16T01:26:35.295Z,14.81
2022-10-16T01:31:42.296Z,14.81
2022-10-16T01:37:10.930Z,14.83
2022-10-16T01:42:25.369Z,14.85
2022-10-16T01:47:31.949Z,14.84
2022-10-16T01:52:40.889Z,14.81
2022-10-16T01:57:48.603Z,14.79
2022-10-16T02:02:56.357Z,14.79
2022-10-16T02:08:01.839Z,14.80
2022-10-16T02:13:14.307Z,14.78
2022-10-16T02:18:17.716Z,14.74
2022-10-16T02:23:50.828Z,14.70
2022-10-16T02:29:01.718Z,14.69
2022-10-16T02:34:07.280Z,14.70
2022-10-16T02:39:11.514Z,14.70
2022-10-16T02:44:15.027Z,14.69
2022-10-16T02:49:19.409Z,14.71
2022-10-16T02:54:22.575Z,14.71
2022-10-16T02:59:25.680Z,14.70
2022-10-16T03:04:28.884Z,14.70
2022-10-16T03:09:31.993Z,14.71
2022-10-16T03:14:35.509Z,14.72
2022-10-16T03:19:38.615Z,14.74
2022-10-16T03:24:42.026Z,14.78
2022-10-16T03:29:45.134Z,14.76
2022-10-16T03:34:48.544Z,14.67
2022-10-16T03:39:51.659Z,14.54
2022-10-16T03:44:54.796Z,14.40
2022-10-16T03:49:57.968Z,14.29
2022-10-16T03:55:01.282Z,14.19
2022-10-16T04:00:04.996Z,14.08
2022-10-16T04:05:09.142Z,13.96
2022-10-16T04:10:12.231Z,13.88
2022-10-16T04:15:15.549Z,13.75
2022-10-16T04:20:19.274Z,13.64
2022-10-16T04:25:22.880Z,13.54
2022-10-16T04:30:26.195Z,13.52
2022-10-16T04:35:29.503Z,13.50
2022-10-16T04:40:37.728Z,13.46
2022-10-16T04:45:40.936Z,13.42
2022-10-16T04:50:44.146Z,13.41
2022-10-16T04:55:47.455Z,13.45
2022-10-16T05:00:50.667Z,13.48
2022-10-16T05:05:54.076Z,13.49
2022-10-16T05:10:57.186Z,13.54
2022-10-16T05:16:00.402Z,13.62
2022-10-16T05:21:04.111Z,13.72
2022-10-16T05:26:07.526Z,13.85
2022-10-16T05:31:11.353Z,13.96
2022-10-16T05:36:14.557Z,14.06
2022-10-16T05:41:22.684Z,14.16
2022-10-16T05:46:25.892Z,14.28
2022-10-16T05:51:28.995Z,14.40
2022-10-16T05:56:32.201Z,14.48
2022-10-16T06:01:36.640Z,14.57
2022-10-16T06:06:39.816Z,14.63
2022-10-16T06:11:43.057Z,14.71
2022-10-16T06:16:46.136Z,14.74
2022-10-16T06:21:49.269Z,14.83
2022-10-16T06:26:52.480Z,14.98
2022-10-16T06:31:55.891Z,15.03
2022-10-16T06:36:59.411Z,15.05
2022-10-16T06:42:02.777Z,15.16
2022-10-16T06:47:07.977Z,15.30
2022-10-16T06:52:11.183Z,15.47
2022-10-16T06:57:14.496Z,15.66
2022-10-16T07:02:17.702Z,15.77
2022-10-16T07:07:21.016Z,15.92
2022-10-16T07:12:24.505Z,16.07
2022-10-16T07:17:27.854Z,16.16
2022-10-16T07:22:31.047Z,16.23
2022-10-16T07:27:34.381Z,16.30
2022-10-16T07:32:38.181Z,16.42
2022-10-16T07:37:46.562Z,16.62
2022-10-16T07:42:49.821Z,16.67
2022-10-16T07:47:52.926Z,16.69
2022-10-16T07:52:56.236Z,16.72
2022-10-16T07:57:59.447Z,16.72
2022-10-16T08:03:02.762Z,16.73
2022-10-16T08:08:05.862Z,16.73
2022-10-16T08:13:09.429Z,16.77
2022-10-16T08:18:14.686Z,16.87
2022-10-16T08:23:17.843Z,17.15
2022-10-16T08:28:21.309Z,17.36
2022-10-16T08:33:24.670Z,17.51
2022-10-16T08:38:27.878Z,17.70
2022-10-16T08:43:54.229Z,17.81
2022-10-16T08:49:00.614Z,17.96
2022-10-16T08:54:24.710Z,18.17
2022-10-16T08:59:27.916Z,18.36
2022-10-16T09:04:55.616Z,18.53
2022-10-16T09:10:28.637Z,18.69
2022-10-16T09:15:49.263Z,18.81
2022-10-16T09:21:11.375Z,18.69
2022-10-16T09:26:17.427Z,18.65
2022-10-16T09:31:22.966Z,18.53
2022-10-16T09:36:28.610Z,18.47
2022-10-16T09:41:32.304Z,18.47
2022-10-16T09:46:37.247Z,18.46
2022-10-16T09:51:40.354Z,18.45
2022-10-16T09:56:46.848Z,18.63
2022-10-16T10:01:54.863Z,18.91
2022-10-16T10:06:58.905Z,18.92
2022-10-16T10:12:07.118Z,18.81
2022-10-16T10:17:13.196Z,18.75
2022-10-16T10:22:38.107Z,19.12
2022-10-16T10:27:51.659Z,19.59
2022-10-16T10:33:40.743Z,19.98
2022-10-16T10:38:59.515Z,20.23
2022-10-16T10:44:20.951Z,20.48
2022-10-16T10:49:32.866Z,20.73
2022-10-16T10:54:38.734Z,21.12
2022-10-16T11:00:19.933Z,21.33
2022-10-16T11:05:28.339Z,21.33
2022-10-16T11:11:03.639Z,21.24
2022-10-16T11:16:23.219Z,21.12
2022-10-16T11:21:31.301Z,20.75
2022-10-16T11:26:42.641Z,20.41
2022-10-16T11:31:55.063Z,20.05
2022-10-16T11:37:05.444Z,19.96
2022-10-16T11:42:28.615Z,20.21
2022-10-16T11:48:00.084Z,20.72
2022-10-16T11:53:15.588Z,21.24
2022-10-16T11:58:35.688Z,21.70
2022-10-16T12:04:05.623Z,22.15
2022-10-16T12:09:18.252Z,21.94
2022-10-16T12:14:29.447Z,21.36
2022-10-16T12:19:33.576Z,20.94
2022-10-16T12:24:39.310Z,21.14
2022-10-16T12:29:45.275Z,21.39
2022-10-16T12:34:49.246Z,21.58
2022-10-16T12:39:55.935Z,21.45
2022-10-16T12:44:59.143Z,21.08
2022-10-16T12:50:05.559Z,20.89
2022-10-16T12:55:21.603Z,20.77
2022-10-16T13:00:55.293Z,20.63
2022-10-16T13:06:01.641Z,20.76
2022-10-16T13:11:16.319Z,20.70
2022-10-16T13:16:51.989Z,20.71
2022-10-16T13:22:04.310Z,20.78
2022-10-16T13:27:13.355Z,20.70
2022-10-16T13:32:17.382Z,20.51
2022-10-16T13:37:23.118Z,20.30
2022-10-16T13:42:29.330Z,20.08
2022-10-16T13:47:33.255Z,19.92
2022-10-16T13:52:36.669Z,19.79
2022-10-16T13:57:40.493Z,19.73
2022-10-16T14:02:45.235Z,19.69
2022-10-16T14:07:52.540Z,19.66
2022-10-16T14:13:01.996Z,19.71
2022-10-16T14:18:05.510Z,19.69
2022-10-16T14:23:32.167Z,19.55
2022-10-16T14:28:36.965Z,19.43
2022-10-16T14:33:40.119Z,19.38
2022-10-16T14:39:07.789Z,19.34
2022-10-16T14:44:12.728Z,19.33
2022-10-16T14:49:23.333Z,19.25
2022-10-16T14:54:26.541Z,19.25
2022-10-16T14:59:39.990Z,19.17
2022-10-16T15:04:43.200Z,19.08
2022-10-16T15:09:49.095Z,18.92
2022-10-16T15:14:53.097Z,18.79
2022-10-16T15:19:56.205Z,18.81
2022-10-16T15:24:59.413Z,19.14
2022-10-16T15:30:02.516Z,19.32
2022-10-16T15:35:06.332Z,19.18
2022-10-16T15:40:10.268Z,19.01
2022-10-16T15:49:48.317Z,18.74
2022-10-16T15:54:53.387Z,18.53
2022-10-16T16:05:46.702Z,18.21
2022-10-16T16:11:10.169Z,17.99
2022-10-16T16:16:16.596Z,17.81
2022-10-16T16:21:18.741Z,17.62
2022-10-16T16:26:31.672Z,17.43
2022-10-16T16:31:34.683Z,17.22
2022-10-16T16:36:36.970Z,17.07
2022-10-16T16:41:38.840Z,16.92
2022-10-16T16:46:43.214Z,16.77
2022-10-16T16:51:45.055Z,16.66
2022-10-16T16:56:47.242Z,16.61
2022-10-16T17:01:54.197Z,16.46
2022-10-16T17:06:58.471Z,16.32
2022-10-16T17:12:00.591Z,16.20
2022-10-16T17:17:02.543Z,16.11
2022-10-16T17:22:04.602Z,16.02
2022-10-16T17:27:06.591Z,15.93
2022-10-16T17:32:08.364Z,15.87
2022-10-16T17:37:14.279Z,15.80
2022-10-16T17:42:19.188Z,15.74
2022-10-16T17:47:20.922Z,15.70
2022-10-16T17:52:22.837Z,15.68
2022-10-16T17:57:25.129Z,15.67
2022-10-16T18:02:27.396Z,15.69
2022-10-16T18:07:29.872Z,15.70
2022-10-16T18:12:32.603Z,15.70
2022-10-16T18:17:39.102Z,15.73
2022-10-16T18:22:41.471Z,15.70
2022-10-16T18:27:43.554Z,15.65
2022-10-16T18:32:45.654Z,15.61
2022-10-16T18:37:49.284Z,15.57
2022-10-16T18:42:53.409Z,15.53
2022-10-16T18:47:55.983Z,15.46
2022-10-16T18:52:58.295Z,15.41
2022-10-16T18:58:00.781Z,15.40
2022-10-16T19:03:03.965Z,15.40
2022-10-16T19:08:06.215Z,15.46
2022-10-16T19:13:11.023Z,15.56
2022-10-16T19:18:13.183Z,15.66
2022-10-16T19:23:15.269Z,15.71
2022-10-16T19:28:17.245Z,15.71
2022-10-16T19:33:19.223Z,15.65
2022-10-16T19:38:21.206Z,15.58
2022-10-16T19:43:23.184Z,15.50
2022-10-16T19:53:32.876Z,15.32
2022-10-16T19:58:34.856Z,15.26
2022-10-16T20:03:38.986Z,15.21
2022-10-16T20:08:42.412Z,15.11
2022-10-16T20:13:44.685Z,15.04
2022-10-16T20:18:49.121Z,15.00
2022-10-16T20:23:51.258Z,14.95
2022-10-16T20:28:54.414Z,14.91
2022-10-16T20:33:58.853Z,14.85
2022-10-16T20:39:01.751Z,14.76
2022-10-16T20:44:04.158Z,14.67
2022-10-16T20:49:10.998Z,14.61
2022-10-16T20:54:18.340Z,14.54
2022-10-16T20:59:20.115Z,14.47
2022-10-16T21:04:21.890Z,14.39
2022-10-16T21:09:24.893Z,14.31
2022-10-16T21:14:26.771Z,14.25
2022-10-16T21:19:29.877Z,14.20
2022-10-16T21:24:31.753Z,14.10
2022-10-16T21:29:34.268Z,14.02
2022-10-16T21:34:36.225Z,13.95
2022-10-16T21:39:38.204Z,13.87
2022-10-16T21:44:40.184Z,13.82
2022-10-16T21:49:42.162Z,13.79
2022-10-16T21:54:44.044Z,13.73
2022-10-16T21:59:45.820Z,13.71
2022-10-16T22:04:47.553Z,13.65
2022-10-16T22:09:49.473Z,13.58
2022-10-16T22:14:51.349Z,13.53
2022-10-16T22:19:53.223Z,13.48
2022-10-16T22:24:55.103Z,13.44
2022-10-16T22:29:56.976Z,13.40
2022-10-16T22:34:58.857Z,13.35
2022-10-16T22:40:01.183Z,13.28
2022-10-16T22:45:03.751Z,13.23
2022-10-16T22:50:06.226Z,13.18
2022-10-16T22:55:08.615Z,13.13
2022-10-16T23:00:13.911Z,13.10
2022-10-16T23:05:16.056Z,13.06
2022-10-16T23:10:18.757Z,13.03
2022-10-16T23:15:20.834Z,13.02
2022-10-16T23:20:23.941Z,12.96
2022-10-16T23:25:25.922Z,12.90
2022-10-16T23:30:28.001Z,12.85
2022-10-16T23:35:29.880Z,12.81
2022-10-16T23:40:31.755Z,12.77
2022-10-16T23:45:33.635Z,12.75
2022-10-16T23:50:35.510Z,12.76
2022-10-16T23:55:37.492Z,12.72
